sensor_id;sensor_type;location;lat;lon;timestamp;pressure;altitude;pressure_sealevel;temperature;humidity
47785;BME280;35233;55.686;37.848;2023-02-21T00:01:44;97539.44;;;6.93;40.10
47785;BME280;35233;55.686;37.848;2023-02-21T00:04:29;97537.38;;;7.00;39.83
47785;BME280;35233;55.686;37.848;2023-02-21T00:07:13;97531.28;;;6.99;39.63
47785;BME280;35233;55.686;37.848;2023-02-21T00:09:57;97526.09;;;6.98;40.17
47785;BME280;35233;55.686;37.848;2023-02-21T00:12:40;97514.19;;;6.91;39.76
47785;BME280;35233;55.686;37.848;2023-02-21T00:15:24;97526.53;;;6.89;40.21
47785;BME280;35233;55.686;37.848;2023-02-21T00:18:08;97505.47;;;6.90;39.54
47785;BME280;35233;55.686;37.848;2023-02-21T00:20:52;97503.00;;;6.87;40.07
47785;BME280;35233;55.686;37.848;2023-02-21T00:23:36;97507.25;;;6.90;39.80
47785;BME280;35233;55.686;37.848;2023-02-21T00:26:20;97502.06;;;6.88;39.89
47785;BME280;35233;55.686;37.848;2023-02-21T00:29:06;97517.75;;;6.90;39.66
47785;BME280;35233;55.686;37.848;2023-02-21T00:31:51;97519.44;;;6.91;39.58
47785;BME280;35233;55.686;37.848;2023-02-21T00:34:34;97510.03;;;6.87;39.52
47785;BME280;35233;55.686;37.848;2023-02-21T00:37:18;97501.50;;;6.82;39.52
47785;BME280;35233;55.686;37.848;2023-02-21T00:40:03;97508.25;;;6.87;39.04
47785;BME280;35233;55.686;37.848;2023-02-21T00:42:47;97511.72;;;6.88;39.83
47785;BME280;35233;55.686;37.848;2023-02-21T00:45:31;97502.56;;;6.77;39.66
47785;BME280;35233;55.686;37.848;2023-02-21T00:48:22;97513.69;;;6.83;39.53
47785;BME280;35233;55.686;37.848;2023-02-21T00:51:06;97490.53;;;6.73;39.04
47785;BME280;35233;55.686;37.848;2023-02-21T00:53:51;97502.22;;;6.85;39.32
47785;BME280;35233;55.686;37.848;2023-02-21T00:56:35;97490.16;;;6.81;39.49
47785;BME280;35233;55.686;37.848;2023-02-21T00:59:19;97483.44;;;6.75;39.54
47785;BME280;35233;55.686;37.848;2023-02-21T01:02:03;97485.34;;;6.72;39.48
47785;BME280;35233;55.686;37.848;2023-02-21T01:04:47;97483.50;;;6.74;39.69
47785;BME280;35233;55.686;37.848;2023-02-21T01:07:31;97472.09;;;6.75;39.27
47785;BME280;35233;55.686;37.848;2023-02-21T01:10:16;97470.38;;;6.74;39.21
47785;BME280;35233;55.686;37.848;2023-02-21T01:13:00;97464.44;;;6.70;38.67
47785;BME280;35233;55.686;37.848;2023-02-21T01:15:44;97461.97;;;6.67;38.94
47785;BME280;35233;55.686;37.848;2023-02-21T01:18:28;97461.66;;;6.73;39.15
47785;BME280;35233;55.686;37.848;2023-02-21T01:21:13;97454.53;;;6.58;39.29
47785;BME280;35233;55.686;37.848;2023-02-21T01:23:57;97442.47;;;6.54;39.24
47785;BME280;35233;55.686;37.848;2023-02-21T01:26:41;97450.03;;;6.60;39.01
47785;BME280;35233;55.686;37.848;2023-02-21T01:29:25;97460.38;;;6.63;39.12
47785;BME280;35233;55.686;37.848;2023-02-21T01:32:09;97449.63;;;6.50;39.11
47785;BME280;35233;55.686;37.848;2023-02-21T01:34:53;97456.06;;;6.62;38.96
47785;BME280;35233;55.686;37.848;2023-02-21T01:37:39;97451.13;;;6.56;38.67
47785;BME280;35233;55.686;37.848;2023-02-21T01:40:23;97453.69;;;6.57;38.59
47785;BME280;35233;55.686;37.848;2023-02-21T01:43:20;97456.66;;;6.50;38.70
47785;BME280;35233;55.686;37.848;2023-02-21T01:46:06;97458.34;;;6.51;39.05
47785;BME280;35233;55.686;37.848;2023-02-21T01:48:53;97433.16;;;6.29;38.45
47785;BME280;35233;55.686;37.848;2023-02-21T01:51:39;97445.38;;;6.48;38.61
47785;BME280;35233;55.686;37.848;2023-02-21T01:54:27;97444.88;;;6.40;38.10
47785;BME280;35233;55.686;37.848;2023-02-21T01:57:11;97444.88;;;6.40;38.26
47785;BME280;35233;55.686;37.848;2023-02-21T01:59:57;97452.69;;;6.41;38.36
47785;BME280;35233;55.686;37.848;2023-02-21T02:03:03;97451.72;;;6.44;38.52
47785;BME280;35233;55.686;37.848;2023-02-21T02:05:59;97455.66;;;6.33;38.79
47785;BME280;35233;55.686;37.848;2023-02-21T02:08:44;97448.44;;;6.39;38.22
47785;BME280;35233;55.686;37.848;2023-02-21T02:14:33;97459.63;;;6.42;38.07
47785;BME280;35233;55.686;37.848;2023-02-21T02:24:55;97447.19;;;6.28;38.73
47785;BME280;35233;55.686;37.848;2023-02-21T02:35:49;97451.84;;;6.22;39.13
47785;BME280;35233;55.686;37.848;2023-02-21T02:38:29;97453.41;;;6.26;39.22
47785;BME280;35233;55.686;37.848;2023-02-21T02:46:14;97434.63;;;6.16;39.96
47785;BME280;35233;55.686;37.848;2023-02-21T02:48:45;97449.59;;;6.14;39.85
47785;BME280;35233;55.686;37.848;2023-02-21T02:51:13;97440.94;;;6.12;39.30
47785;BME280;35233;55.686;37.848;2023-02-21T02:53:40;97438.72;;;6.22;39.00
47785;BME280;35233;55.686;37.848;2023-02-21T02:56:08;97441.44;;;6.20;39.51
47785;BME280;35233;55.686;37.848;2023-02-21T02:58:43;97426.84;;;6.15;39.52
47785;BME280;35233;55.686;37.848;2023-02-21T03:06:53;97433.06;;;6.12;39.18
47785;BME280;35233;55.686;37.848;2023-02-21T03:12:17;97442.44;;;6.18;39.28
47785;BME280;35233;55.686;37.848;2023-02-21T03:15:10;97409.25;;;5.98;39.10
47785;BME280;35233;55.686;37.848;2023-02-21T03:17:43;97422.03;;;6.05;38.96
47785;BME280;35233;55.686;37.848;2023-02-21T03:20:12;97432.97;;;6.13;38.89
47785;BME280;35233;55.686;37.848;2023-02-21T03:22:39;97417.13;;;5.98;39.06
47785;BME280;35233;55.686;37.848;2023-02-21T03:25:07;97430.94;;;6.01;39.66
47785;BME280;35233;55.686;37.848;2023-02-21T03:27:34;97417.25;;;5.95;39.25
47785;BME280;35233;55.686;37.848;2023-02-21T03:30:03;97417.06;;;5.99;39.41
47785;BME280;35233;55.686;37.848;2023-02-21T03:32:36;97402.63;;;5.89;39.14
47785;BME280;35233;55.686;37.848;2023-02-21T03:35:03;97432.44;;;6.07;39.14
47785;BME280;35233;55.686;37.848;2023-02-21T03:40:03;97430.09;;;6.01;39.34
47785;BME280;35233;55.686;37.848;2023-02-21T03:42:29;97431.63;;;6.05;39.46
47785;BME280;35233;55.686;37.848;2023-02-21T03:44:54;97421.16;;;6.05;38.84
47785;BME280;35233;55.686;37.848;2023-02-21T03:47:20;97422.22;;;6.01;39.00
47785;BME280;35233;55.686;37.848;2023-02-21T03:49:46;97422.31;;;5.99;39.33
47785;BME280;35233;55.686;37.848;2023-02-21T03:52:12;97429.94;;;6.04;38.61
47785;BME280;35233;55.686;37.848;2023-02-21T03:54:39;97418.66;;;6.02;38.68
47785;BME280;35233;55.686;37.848;2023-02-21T03:57:04;97420.69;;;5.97;38.85
47785;BME280;35233;55.686;37.848;2023-02-21T03:59:30;97414.56;;;5.96;39.10
47785;BME280;35233;55.686;37.848;2023-02-21T04:01:55;97409.47;;;5.93;38.63
47785;BME280;35233;55.686;37.848;2023-02-21T04:04:21;97430.88;;;6.03;38.75
47785;BME280;35233;55.686;37.848;2023-02-21T04:06:46;97430.47;;;5.92;38.45
47785;BME280;35233;55.686;37.848;2023-02-21T04:09:12;97428.44;;;5.98;38.55
47785;BME280;35233;55.686;37.848;2023-02-21T04:11:37;97408.22;;;5.81;38.52
47785;BME280;35233;55.686;37.848;2023-02-21T04:14:06;97429.69;;;5.89;38.84
47785;BME280;35233;55.686;37.848;2023-02-21T04:16:32;97409.66;;;5.88;38.25
47785;BME280;35233;55.686;37.848;2023-02-21T04:18:57;97419.47;;;5.83;38.76
47785;BME280;35233;55.686;37.848;2023-02-21T04:21:23;97435.06;;;5.86;38.11
47785;BME280;35233;55.686;37.848;2023-02-21T04:23:48;97438.63;;;5.85;38.55
47785;BME280;35233;55.686;37.848;2023-02-21T04:26:14;97436.19;;;5.81;38.61
47785;BME280;35233;55.686;37.848;2023-02-21T04:28:39;97436.75;;;5.87;38.49
47785;BME280;35233;55.686;37.848;2023-02-21T04:31:05;97438.16;;;5.76;38.18
47785;BME280;35233;55.686;37.848;2023-02-21T04:33:30;97435.91;;;5.68;38.63
47785;BME280;35233;55.686;37.848;2023-02-21T04:35:56;97444.00;;;5.82;38.43
47785;BME280;35233;55.686;37.848;2023-02-21T04:38:21;97442.50;;;5.77;38.58
47785;BME280;35233;55.686;37.848;2023-02-21T04:40:48;97447.78;;;5.75;38.58
47785;BME280;35233;55.686;37.848;2023-02-21T04:43:14;97445.31;;;5.72;38.30
47785;BME280;35233;55.686;37.848;2023-02-21T04:45:39;97445.53;;;5.67;38.66
47785;BME280;35233;55.686;37.848;2023-02-21T04:48:05;97450.50;;;5.74;38.47
47785;BME280;35233;55.686;37.848;2023-02-21T04:50:30;97440.47;;;5.63;38.96
47785;BME280;35233;55.686;37.848;2023-02-21T04:52:56;97443.38;;;5.57;38.55
47785;BME280;35233;55.686;37.848;2023-02-21T04:55:21;97438.25;;;5.54;38.51
47785;BME280;35233;55.686;37.848;2023-02-21T04:57:47;97462.13;;;5.66;38.13
47785;BME280;35233;55.686;37.848;2023-02-21T05:00:12;97452.91;;;5.58;38.09
47785;BME280;35233;55.686;37.848;2023-02-21T05:02:42;97467.47;;;5.65;38.33
47785;BME280;35233;55.686;37.848;2023-02-21T05:05:07;97459.22;;;5.54;37.95
47785;BME280;35233;55.686;37.848;2023-02-21T05:07:33;97459.66;;;5.63;37.71
47785;BME280;35233;55.686;37.848;2023-02-21T05:09:58;97460.19;;;5.51;38.24
47785;BME280;35233;55.686;37.848;2023-02-21T05:12:24;97441.03;;;5.51;37.91
47785;BME280;35233;55.686;37.848;2023-02-21T05:14:49;97450.28;;;5.58;37.70
47785;BME280;35233;55.686;37.848;2023-02-21T05:17:15;97436.81;;;5.47;37.96
47785;BME280;35233;55.686;37.848;2023-02-21T05:19:40;97458.38;;;5.53;38.33
47785;BME280;35233;55.686;37.848;2023-02-21T05:22:06;97452.22;;;5.54;38.21
47785;BME280;35233;55.686;37.848;2023-02-21T05:24:33;97456.31;;;5.60;37.69
47785;BME280;35233;55.686;37.848;2023-02-21T05:26:59;97450.28;;;5.58;37.89
47785;BME280;35233;55.686;37.848;2023-02-21T05:29:26;97466.16;;;5.55;37.92
47785;BME280;35233;55.686;37.848;2023-02-21T05:31:51;97465.03;;;5.60;38.10
47785;BME280;35233;55.686;37.848;2023-02-21T05:34:17;97442.84;;;5.49;37.76
47785;BME280;35233;55.686;37.848;2023-02-21T05:36:44;97451.34;;;5.54;38.33
47785;BME280;35233;55.686;37.848;2023-02-21T05:39:09;97451.94;;;5.60;37.74
47785;BME280;35233;55.686;37.848;2023-02-21T05:41:35;97444.22;;;5.57;37.63
47785;BME280;35233;55.686;37.848;2023-02-21T05:44:01;97455.25;;;5.64;37.60
47785;BME280;35233;55.686;37.848;2023-02-21T05:46:30;97456.13;;;5.64;37.45
47785;BME280;35233;55.686;37.848;2023-02-21T05:48:57;97455.00;;;5.70;37.43
47785;BME280;35233;55.686;37.848;2023-02-21T05:51:24;97444.28;;;5.76;37.05
47785;BME280;35233;55.686;37.848;2023-02-21T05:53:50;97444.13;;;5.79;36.81
47785;BME280;35233;55.686;37.848;2023-02-21T05:56:17;97442.41;;;5.78;37.15
47785;BME280;35233;55.686;37.848;2023-02-21T05:58:43;97463.75;;;5.89;36.96
47785;BME280;35233;55.686;37.848;2023-02-21T06:01:08;97467.06;;;5.95;36.75
47785;BME280;35233;55.686;37.848;2023-02-21T06:03:34;97467.09;;;5.93;36.59
47785;BME280;35233;55.686;37.848;2023-02-21T06:06:00;97452.47;;;5.87;36.65
47785;BME280;35233;55.686;37.848;2023-02-21T06:08:25;97459.34;;;5.90;36.66
47785;BME280;35233;55.686;37.848;2023-02-21T06:10:51;97467.34;;;5.87;36.57
47785;BME280;35233;55.686;37.848;2023-02-21T06:13:16;97467.19;;;6.10;35.72
47785;BME280;35233;55.686;37.848;2023-02-21T06:15:42;97464.81;;;6.06;35.77
47785;BME280;35233;55.686;37.848;2023-02-21T06:18:09;97457.63;;;5.90;35.97
47785;BME280;35233;55.686;37.848;2023-02-21T06:20:36;97472.81;;;6.03;35.73
47785;BME280;35233;55.686;37.848;2023-02-21T06:23:01;97458.06;;;6.00;36.48
47785;BME280;35233;55.686;37.848;2023-02-21T06:25:27;97464.03;;;6.04;36.51
47785;BME280;35233;55.686;37.848;2023-02-21T06:27:53;97458.38;;;5.93;36.47
47785;BME280;35233;55.686;37.848;2023-02-21T06:30:18;97473.94;;;6.16;35.88
47785;BME280;35233;55.686;37.848;2023-02-21T06:32:43;97458.38;;;6.32;35.67
47785;BME280;35233;55.686;37.848;2023-02-21T06:35:09;97464.97;;;6.41;35.01
47785;BME280;35233;55.686;37.848;2023-02-21T06:37:34;97459.66;;;6.23;35.24
47785;BME280;35233;55.686;37.848;2023-02-21T06:40:00;97464.31;;;6.17;35.54
47785;BME280;35233;55.686;37.848;2023-02-21T06:42:25;97456.94;;;6.06;35.74
47785;BME280;35233;55.686;37.848;2023-02-21T06:44:52;97460.13;;;6.12;35.65
47785;BME280;35233;55.686;37.848;2023-02-21T06:47:17;97454.88;;;6.12;35.78
47785;BME280;35233;55.686;37.848;2023-02-21T06:49:43;97464.38;;;6.15;35.25
47785;BME280;35233;55.686;37.848;2023-02-21T06:52:09;97464.91;;;6.23;35.49
47785;BME280;35233;55.686;37.848;2023-02-21T06:54:35;97464.59;;;6.10;35.84
47785;BME280;35233;55.686;37.848;2023-02-21T06:57:01;97458.94;;;6.20;35.58
47785;BME280;35233;55.686;37.848;2023-02-21T06:59:29;97457.31;;;6.17;35.15
47785;BME280;35233;55.686;37.848;2023-02-21T07:01:55;97464.91;;;6.23;35.81
47785;BME280;35233;55.686;37.848;2023-02-21T07:04:21;97462.56;;;6.17;35.29
47785;BME280;35233;55.686;37.848;2023-02-21T07:06:47;97444.69;;;6.06;35.17
47785;BME280;35233;55.686;37.848;2023-02-21T07:09:13;97470.19;;;6.22;35.58
47785;BME280;35233;55.686;37.848;2023-02-21T07:11:39;97451.34;;;6.13;35.39
47785;BME280;35233;55.686;37.848;2023-02-21T07:14:05;97456.38;;;6.18;35.86
47785;BME280;35233;55.686;37.848;2023-02-21T07:16:31;97470.06;;;6.25;35.05
47785;BME280;35233;55.686;37.848;2023-02-21T07:18:56;97470.00;;;6.26;35.26
47785;BME280;35233;55.686;37.848;2023-02-21T07:21:22;97463.97;;;6.24;35.41
47785;BME280;35233;55.686;37.848;2023-02-21T07:23:48;97468.06;;;6.30;35.48
47785;BME280;35233;55.686;37.848;2023-02-21T07:26:14;97458.72;;;6.24;35.62
47785;BME280;35233;55.686;37.848;2023-02-21T07:28:40;97477.50;;;6.34;34.98
47785;BME280;35233;55.686;37.848;2023-02-21T07:31:06;97481.75;;;6.37;34.98
47785;BME280;35233;55.686;37.848;2023-02-21T07:33:32;97477.28;;;6.39;35.44
47785;BME280;35233;55.686;37.848;2023-02-21T07:35:57;97482.34;;;6.43;35.73
47785;BME280;35233;55.686;37.848;2023-02-21T07:38:25;97477.94;;;6.44;34.91
47785;BME280;35233;55.686;37.848;2023-02-21T07:40:59;97471.34;;;6.35;35.30
47785;BME280;35233;55.686;37.848;2023-02-21T07:43:27;97468.63;;;6.37;35.37
47785;BME280;35233;55.686;37.848;2023-02-21T07:45:53;97483.03;;;6.47;35.29
47785;BME280;35233;55.686;37.848;2023-02-21T07:48:19;97486.31;;;6.52;35.90
47785;BME280;35233;55.686;37.848;2023-02-21T07:50:45;97474.47;;;6.43;35.59
47785;BME280;35233;55.686;37.848;2023-02-21T07:53:11;97499.41;;;6.52;36.04
47785;BME280;35233;55.686;37.848;2023-02-21T07:55:37;97497.63;;;6.52;35.31
47785;BME280;35233;55.686;37.848;2023-02-21T07:58:03;97476.84;;;6.48;35.66
47785;BME280;35233;55.686;37.848;2023-02-21T08:00:28;97480.13;;;6.53;36.03
47785;BME280;35233;55.686;37.848;2023-02-21T08:02:54;97464.03;;;6.42;36.05
47785;BME280;35233;55.686;37.848;2023-02-21T08:05:20;97495.50;;;6.61;35.69
47785;BME280;35233;55.686;37.848;2023-02-21T08:07:46;97493.03;;;6.57;35.37
47785;BME280;35233;55.686;37.848;2023-02-21T08:10:17;97492.50;;;6.68;36.17
47785;BME280;35233;55.686;37.848;2023-02-21T08:12:43;97491.66;;;6.68;35.80
47785;BME280;35233;55.686;37.848;2023-02-21T08:15:08;97463.44;;;6.54;36.16
47785;BME280;35233;55.686;37.848;2023-02-21T08:17:33;97493.28;;;6.70;35.74
47785;BME280;35233;55.686;37.848;2023-02-21T08:19:59;97488.19;;;6.67;35.92
47785;BME280;35233;55.686;37.848;2023-02-21T08:22:24;97488.84;;;6.72;35.66
47785;BME280;35233;55.686;37.848;2023-02-21T08:24:50;97483.66;;;6.71;36.30
47785;BME280;35233;55.686;37.848;2023-02-21T08:27:16;97488.75;;;6.74;35.58
47785;BME280;35233;55.686;37.848;2023-02-21T08:29:42;97497.31;;;6.77;35.63
47785;BME280;35233;55.686;37.848;2023-02-21T08:32:08;97483.59;;;6.72;35.87
47785;BME280;35233;55.686;37.848;2023-02-21T08:34:34;97492.78;;;6.81;35.57
47785;BME280;35233;55.686;37.848;2023-02-21T08:36:59;97474.28;;;6.65;35.89
47785;BME280;35233;55.686;37.848;2023-02-21T08:39:25;97497.06;;;6.84;35.75
47785;BME280;35233;55.686;37.848;2023-02-21T08:41:54;97483.44;;;6.75;35.50
47785;BME280;35233;55.686;37.848;2023-02-21T08:44:20;97494.34;;;6.85;35.72
47785;BME280;35233;55.686;37.848;2023-02-21T08:46:48;97489.19;;;6.84;35.62
47785;BME280;35233;55.686;37.848;2023-02-21T08:49:14;97496.81;;;6.88;35.67
47785;BME280;35233;55.686;37.848;2023-02-21T08:51:40;97494.34;;;6.85;36.33
47785;BME280;35233;55.686;37.848;2023-02-21T08:54:06;97494.88;;;6.92;35.77
47785;BME280;35233;55.686;37.848;2023-02-21T08:56:32;97497.50;;;6.92;36.47
47785;BME280;35233;55.686;37.848;2023-02-21T08:58:58;97483.69;;;6.88;36.56
47785;BME280;35233;55.686;37.848;2023-02-21T09:01:30;97495.66;;;6.94;36.16
47785;BME280;35233;55.686;37.848;2023-02-21T09:03:56;97475.75;;;6.90;36.62
47785;BME280;35233;55.686;37.848;2023-02-21T09:06:22;97480.13;;;6.89;36.46
47785;BME280;35233;55.686;37.848;2023-02-21T09:08:47;97496.31;;;6.99;36.53
47785;BME280;35233;55.686;37.848;2023-02-21T09:11:14;97496.22;;;7.00;36.39
47785;BME280;35233;55.686;37.848;2023-02-21T09:13:40;97487.34;;;7.03;36.85
47785;BME280;35233;55.686;37.848;2023-02-21T09:16:06;97480.47;;;7.00;36.57
47785;BME280;35233;55.686;37.848;2023-02-21T09:18:32;97498.63;;;7.05;36.64
47785;BME280;35233;55.686;37.848;2023-02-21T09:20:58;97495.84;;;7.08;37.12
47785;BME280;35233;55.686;37.848;2023-02-21T09:23:28;97499.97;;;7.14;36.33
47785;BME280;35233;55.686;37.848;2023-02-21T09:25:54;97488.03;;;7.07;36.72
47785;BME280;35233;55.686;37.848;2023-02-21T09:28:20;97495.56;;;7.14;37.19
47785;BME280;35233;55.686;37.848;2023-02-21T09:30:46;97484.41;;;7.09;36.89
47785;BME280;35233;55.686;37.848;2023-02-21T09:33:13;97503.28;;;7.17;37.29
47785;BME280;35233;55.686;37.848;2023-02-21T09:35:39;97492.22;;;7.11;36.98
47785;BME280;35233;55.686;37.848;2023-02-21T09:38:05;97502.13;;;7.23;36.50
47785;BME280;35233;55.686;37.848;2023-02-21T09:43:06;97490.63;;;7.25;37.03
47785;BME280;35233;55.686;37.848;2023-02-21T09:45:36;97491.63;;;7.23;37.05
47785;BME280;35233;55.686;37.848;2023-02-21T09:48:21;97486.16;;;7.28;36.99
47785;BME280;35233;55.686;37.848;2023-02-21T09:50:54;97493.94;;;7.29;36.64
47785;BME280;35233;55.686;37.848;2023-02-21T09:53:30;97492.94;;;7.32;36.88
47785;BME280;35233;55.686;37.848;2023-02-21T09:56:04;97493.63;;;7.35;37.07
47785;BME280;35233;55.686;37.848;2023-02-21T09:58:30;97486.69;;;7.34;36.62
47785;BME280;35233;55.686;37.848;2023-02-21T10:01:03;97470.78;;;7.37;36.65
47785;BME280;35233;55.686;37.848;2023-02-21T10:03:54;97489.63;;;7.45;36.40
47785;BME280;35233;55.686;37.848;2023-02-21T10:09:07;97489.38;;;7.50;36.97
47785;BME280;35233;55.686;37.848;2023-02-21T10:17:37;97498.13;;;7.33;36.55
47785;BME280;35233;55.686;37.848;2023-02-21T10:19:44;97490.94;;;7.37;36.54
47785;BME280;35233;55.686;37.848;2023-02-21T10:22:18;97490.63;;;7.43;36.43
47785;BME280;35233;55.686;37.848;2023-02-21T10:24:44;97483.38;;;7.48;36.63
47785;BME280;35233;55.686;37.848;2023-02-21T10:27:19;97489.53;;;7.47;36.80
47785;BME280;35233;55.686;37.848;2023-02-21T10:30:16;97500.63;;;7.54;36.70
47785;BME280;35233;55.686;37.848;2023-02-21T10:32:43;97499.84;;;7.52;36.67
47785;BME280;35233;55.686;37.848;2023-02-21T10:35:09;97503.00;;;7.41;36.53
47785;BME280;35233;55.686;37.848;2023-02-21T10:40:15;97508.50;;;7.36;37.00
47785;BME280;35233;55.686;37.848;2023-02-21T10:42:53;97509.97;;;7.42;36.42
47785;BME280;35233;55.686;37.848;2023-02-21T10:45:26;97522.78;;;7.48;36.66
47785;BME280;35233;55.686;37.848;2023-02-21T10:48:00;97524.69;;;7.44;36.72
47785;BME280;35233;55.686;37.848;2023-02-21T10:53:05;97534.13;;;7.48;37.08
47785;BME280;35233;55.686;37.848;2023-02-21T10:55:31;97532.41;;;7.47;36.47
47785;BME280;35233;55.686;37.848;2023-02-21T10:57:58;97539.59;;;7.44;36.46
47785;BME280;35233;55.686;37.848;2023-02-21T11:00:33;97522.63;;;7.34;36.73
47785;BME280;35233;55.686;37.848;2023-02-21T11:05:37;97536.97;;;7.44;37.21
47785;BME280;35233;55.686;37.848;2023-02-21T11:08:05;97525.16;;;7.35;36.80
47785;BME280;35233;55.686;37.848;2023-02-21T11:10:41;97539.44;;;7.47;36.90
47785;BME280;35233;55.686;37.848;2023-02-21T11:13:16;97540.25;;;7.49;36.77
47785;BME280;35233;55.686;37.848;2023-02-21T11:15:45;97520.38;;;7.43;36.88
47785;BME280;35233;55.686;37.848;2023-02-21T11:18:21;97533.03;;;7.53;36.74
47785;BME280;35233;55.686;37.848;2023-02-21T11:20:47;97527.78;;;7.53;36.88
47785;BME280;35233;55.686;37.848;2023-02-21T11:23:25;97531.25;;;7.53;36.59
47785;BME280;35233;55.686;37.848;2023-02-21T11:26:05;97530.41;;;7.53;36.78
47785;BME280;35233;55.686;37.848;2023-02-21T11:28:39;97539.31;;;7.50;36.56
47785;BME280;35233;55.686;37.848;2023-02-21T11:31:26;97548.50;;;7.59;36.38
47785;BME280;35233;55.686;37.848;2023-02-21T11:33:59;97555.84;;;7.52;36.69
47785;BME280;35233;55.686;37.848;2023-02-21T11:36:37;97555.06;;;7.50;36.95
47785;BME280;35233;55.686;37.848;2023-02-21T11:39:13;97556.53;;;7.56;36.74
47785;BME280;35233;55.686;37.848;2023-02-21T11:42:29;97556.53;;;7.56;36.63
47785;BME280;35233;55.686;37.848;2023-02-21T11:45:27;97553.22;;;7.52;36.74
47785;BME280;35233;55.686;37.848;2023-02-21T11:48:00;97566.34;;;7.52;36.67
47785;BME280;35233;55.686;37.848;2023-02-21T11:50:33;97560.63;;;7.44;36.56
47785;BME280;35233;55.686;37.848;2023-02-21T11:55:38;97575.22;;;7.49;36.65
47785;BME280;35233;55.686;37.848;2023-02-21T12:01:15;97551.06;;;7.43;37.56
47785;BME280;35233;55.686;37.848;2023-02-21T12:04:13;97574.19;;;7.54;37.28
47785;BME280;35233;55.686;37.848;2023-02-21T12:09:46;97562.34;;;7.45;37.34
47785;BME280;35233;55.686;37.848;2023-02-21T12:15:24;97584.75;;;7.52;37.80
47785;BME280;35233;55.686;37.848;2023-02-21T12:18:34;97586.44;;;7.53;38.14
47785;BME280;35233;55.686;37.848;2023-02-21T12:26:50;97598.34;;;7.43;38.30
47785;BME280;35233;55.686;37.848;2023-02-21T12:34:42;97598.63;;;7.37;38.55
47785;BME280;35233;55.686;37.848;2023-02-21T12:48:11;97611.97;;;7.32;39.21
47785;BME280;35233;55.686;37.848;2023-02-21T12:50:45;97636.19;;;7.39;38.86
47785;BME280;35233;55.686;37.848;2023-02-21T12:53:17;97617.63;;;7.24;38.91
47785;BME280;35233;55.686;37.848;2023-02-21T12:56:18;97636.47;;;7.33;38.85
47785;BME280;35233;55.686;37.848;2023-02-21T13:02:00;97641.94;;;7.28;39.19
47785;BME280;35233;55.686;37.848;2023-02-21T13:07:13;97642.00;;;7.26;38.95
47785;BME280;35233;55.686;37.848;2023-02-21T13:09:50;97647.56;;;7.20;39.30
47785;BME280;35233;55.686;37.848;2023-02-21T13:14:57;97646.84;;;7.17;39.65
47785;BME280;35233;55.686;37.848;2023-02-21T13:17:25;97673.66;;;7.23;39.34
47785;BME280;35233;55.686;37.848;2023-02-21T13:20:08;97668.50;;;7.22;39.55
47785;BME280;35233;55.686;37.848;2023-02-21T13:28:40;97675.88;;;7.14;39.62
47785;BME280;35233;55.686;37.848;2023-02-21T13:31:26;97665.84;;;7.03;39.19
47785;BME280;35233;55.686;37.848;2023-02-21T13:33:58;97689.84;;;7.14;39.43
47785;BME280;35233;55.686;37.848;2023-02-21T13:36:26;97690.06;;;7.10;39.25
47785;BME280;35233;55.686;37.848;2023-02-21T13:39:17;97697.06;;;7.09;39.55
47785;BME280;35233;55.686;37.848;2023-02-21T13:41:49;97695.38;;;7.08;39.36
47785;BME280;35233;55.686;37.848;2023-02-21T13:44:21;97693.09;;;7.00;39.53
47785;BME280;35233;55.686;37.848;2023-02-21T13:57:45;97725.09;;;6.90;39.43
47785;BME280;35233;55.686;37.848;2023-02-21T14:10:50;97751.81;;;6.79;39.19
47785;BME280;35233;55.686;37.848;2023-02-21T14:15:57;97758.84;;;6.78;39.33
47785;BME280;35233;55.686;37.848;2023-02-21T14:18:29;97769.34;;;6.78;39.41
47785;BME280;35233;55.686;37.848;2023-02-21T14:20:58;97757.59;;;6.67;39.40
47785;BME280;35233;55.686;37.848;2023-02-21T14:31:49;97792.00;;;6.59;39.73
47785;BME280;35233;55.686;37.848;2023-02-21T14:34:41;97800.00;;;6.56;39.04
47785;BME280;35233;55.686;37.848;2023-02-21T14:37:39;97798.44;;;6.52;39.37
47785;BME280;35233;55.686;37.848;2023-02-21T14:56:48;97841.91;;;6.37;39.35
47785;BME280;35233;55.686;37.848;2023-02-21T15:04:53;97858.94;;;6.25;40.18
47785;BME280;35233;55.686;37.848;2023-02-21T15:10:32;97873.47;;;6.12;40.17
47785;BME280;35233;55.686;37.848;2023-02-21T15:13:00;97880.16;;;6.19;39.87
47785;BME280;35233;55.686;37.848;2023-02-21T15:15:33;97879.53;;;6.14;40.29
47785;BME280;35233;55.686;37.848;2023-02-21T15:18:11;97881.13;;;6.17;39.95
47785;BME280;35233;55.686;37.848;2023-02-21T15:23:28;97885.09;;;6.05;40.04
47785;BME280;35233;55.686;37.848;2023-02-21T15:25:56;97893.16;;;6.00;40.41
47785;BME280;35233;55.686;37.848;2023-02-21T15:28:31;97891.44;;;5.99;40.44
47785;BME280;35233;55.686;37.848;2023-02-21T15:33:24;97896.13;;;5.89;40.47
47785;BME280;35233;55.686;37.848;2023-02-21T15:36:06;97885.84;;;5.85;40.10
47785;BME280;35233;55.686;37.848;2023-02-21T15:39:01;97902.91;;;5.97;40.50
47785;BME280;35233;55.686;37.848;2023-02-21T15:41:31;97918.75;;;5.92;40.72
47785;BME280;35233;55.686;37.848;2023-02-21T15:44:03;97917.22;;;5.86;41.05
47785;BME280;35233;55.686;37.848;2023-02-21T15:46:50;97928.34;;;5.93;40.79
47785;BME280;35233;55.686;37.848;2023-02-21T15:49:24;97926.09;;;5.82;40.85
47785;BME280;35233;55.686;37.848;2023-02-21T15:51:51;97924.38;;;5.81;40.88
47785;BME280;35233;55.686;37.848;2023-02-21T15:56:43;97944.50;;;5.81;40.96
47785;BME280;35233;55.686;37.848;2023-02-21T15:59:33;97954.97;;;5.81;40.80
47785;BME280;35233;55.686;37.848;2023-02-21T16:04:37;97947.19;;;5.54;40.61
47785;BME280;35233;55.686;37.848;2023-02-21T16:07:05;97959.84;;;5.66;40.84
47785;BME280;35233;55.686;37.848;2023-02-21T16:09:32;97982.47;;;5.69;40.80
47785;BME280;35233;55.686;37.848;2023-02-21T16:12:05;97973.06;;;5.63;40.46
47785;BME280;35233;55.686;37.848;2023-02-21T16:17:19;97979.38;;;5.58;40.39
47785;BME280;35233;55.686;37.848;2023-02-21T16:19:49;97992.47;;;5.58;40.59